Latest Weather Observations for Fort Denison

IDN60801

Issued at 8:03 pm EST Friday 29 July 2016 (issued every 30 minutes, with the page automatically refreshed every 10 minutes)

About weather observations | Map of weather stations | Latest weather observations for NSW | Other Formats
Station Details ID: 066022 Name: FORT DENISON Lat: -33.86 Lon: 151.23 Height: 5.0 m
Data from the previous 72 hours. | See also: Recent months for locations in New South Wales
Date/Time
EST
Temp
°C
App
Temp
°C
Dew
Point
°C
Rel
Hum
%
Delta-T
°C
Wind Press
QNH
hPa
Press
MSL
hPa
Rain since
9am
mm
Dir  Spd
km/h
Gust
km/h
Spd
kts
Gust
kts
29/08:00pm - - - - - WSW 28 43 15 23 - - -
29/07:30pm - - - - - WSW 28 50 15 27 - - -
29/07:29pm - - - - - WSW 28 50 15 27 - - -
29/07:00pm - - - - - WSW 17 32 9 17 - - -
29/06:30pm - - - - - WSW 17 26 9 14 - - -
29/06:00pm - - - - - WSW 20 33 11 18 - - -
29/05:30pm - - - - - WSW 22 32 12 17 - - -
29/05:00pm - - - - - W 26 33 14 18 - - -
29/04:30pm - - - - - WSW 20 30 11 16 - - -
29/04:00pm - - - - - W 11 22 6 12 - - -
29/03:30pm - - - - - WNW 11 17 6 9 - - -
29/03:00pm - - - - - WNW 11 20 6 11 - - -
29/02:30pm - - - - - W 13 17 7 9 - - -
29/02:00pm - - - - - W 13 17 7 9 - - -
29/01:30pm - - - - - W 7 13 4 7 - - -
29/01:00pm - - - - - W 13 17 7 9 - - -
29/12:30pm - - - - - W 17 20 9 11 - - -
29/12:00pm - - - - - W 15 19 8 10 - - -
29/11:30am - - - - - WNW 17 20 9 11 - - -
29/11:00am - - - - - W 19 24 10 13 - - -
29/10:30am - - - - - W 20 24 11 13 - - -
29/10:00am - - - - - WNW 17 22 9 12 - - -
29/09:30am - - - - - W 26 32 14 17 - - -
29/09:00am - - - - - W 24 32 13 17 - - -
29/08:30am - - - - - W 26 33 14 18 - - -
29/08:00am - - - - - W 19 22 10 12 - - -
29/07:30am - - - - - W 19 22 10 12 - - -
29/07:00am - - - - - W 22 26 12 14 - - -
29/06:30am - - - - - W 22 26 12 14 - - -
29/06:00am - - - - - W 20 26 11 14 - - -
29/05:30am - - - - - WSW 19 24 10 13 - - -
29/05:00am - - - - - W 19 24 10 13 - - -
29/04:30am - - - - - W 20 26 11 14 - - -
29/04:00am - - - - - W 22 30 12 16 - - -
29/03:30am - - - - - W 24 30 13 16 - - -
29/03:00am - - - - - WSW 26 35 14 19 - - -
29/02:30am - - - - - W 30 39 16 21 - - -
29/02:00am - - - - - W 26 32 14 17 - - -
29/01:30am - - - - - W 20 26 11 14 - - -
29/01:00am - - - - - W 24 30 13 16 - - -
29/12:30am - - - - - W 22 32 12 17 - - -
29/12:00am - - - - - W 22 28 12 15 - - -
 
Date/Time
EST
Temp
°C
App
Temp
°C
Dew
Point
°C
Rel
Hum
%
Delta-T
°C
Wind Press
QNH
hPa
Press
MSL
hPa
Rain since
9am
mm
Dir  Spd
km/h
Gust
km/h
Spd
kts
Gust
kts
28/11:30pm - - - - - W 22 28 12 15 - - -
28/11:00pm - - - - - W 20 26 11 14 - - -
28/10:30pm - - - - - W 22 33 12 18 - - -
28/10:00pm - - - - - W 19 28 10 15 - - -
28/09:30pm - - - - - W 24 33 13 18 - - -
28/09:00pm - - - - - WSW 28 39 15 21 - - -
28/08:33pm - - - - - WSW 28 48 15 26 - - -
28/08:30pm - - - - - WSW 24 44 13 24 - - -
28/08:00pm - - - - - W 22 33 12 18 - - -
28/07:30pm - - - - - WSW 22 32 12 17 - - -
28/07:00pm - - - - - W 26 37 14 20 - - -
28/06:30pm - - - - - WSW 17 33 9 18 - - -
28/06:00pm - - - - - WSW 15 24 8 13 - - -
28/05:30pm - - - - - SW 17 28 9 15 - - -
28/05:00pm - - - - - WNW 11 15 6 8 - - -
28/04:30pm - - - - - WNW 11 17 6 9 - - -
28/04:00pm - - - - - WNW 13 20 7 11 - - -
28/03:30pm - - - - - WNW 11 17 6 9 - - -
28/03:00pm - - - - - WNW 11 13 6 7 - - -
28/02:30pm - - - - - WNW 13 17 7 9 - - -
28/02:00pm - - - - - W 9 13 5 7 - - -
28/01:30pm - - - - - W 9 13 5 7 - - -
28/01:00pm - - - - - W 13 20 7 11 - - -
28/12:30pm - - - - - W 13 15 7 8 - - -
28/12:00pm - - - - - W 15 19 8 10 - - -
28/11:30am - - - - - WNW 17 20 9 11 - - -
28/11:00am - - - - - WNW 19 24 10 13 - - -
28/10:30am - - - - - W 22 30 12 16 - - -
28/10:00am - - - - - W 20 28 11 15 - - -
28/09:30am - - - - - W 22 30 12 16 - - -
28/09:00am - - - - - W 19 26 10 14 - - -
28/08:30am - - - - - W 17 22 9 12 - - -
28/08:00am - - - - - W 19 22 10 12 - - -
28/07:30am - - - - - W 20 24 11 13 - - -
28/07:00am - - - - - W 19 20 10 11 - - -
28/06:30am - - - - - W 17 20 9 11 - - -
28/06:00am - - - - - W 19 20 10 11 - - -
28/05:30am - - - - - W 17 19 9 10 - - -
28/05:00am - - - - - W 17 20 9 11 - - -
28/04:30am - - - - - W 15 19 8 10 - - -
28/04:00am - - - - - WNW 13 22 7 12 - - -
28/03:30am - - - - - W 20 30 11 16 - - -
28/03:00am - - - - - W 17 24 9 13 - - -
28/02:30am - - - - - W 19 24 10 13 - - -
28/02:00am - - - - - WSW 20 26 11 14 - - -
28/01:30am - - - - - W 19 28 10 15 - - -
28/01:00am - - - - - W 24 32 13 17 - - -
28/12:30am - - - - - WSW 17 24 9 13 - - -
28/12:00am - - - - - W 19 26 10 14 - - -
 
Date/Time
EST
Temp
°C
App
Temp
°C
Dew
Point
°C
Rel
Hum
%
Delta-T
°C
Wind Press
QNH
hPa
Press
MSL
hPa
Rain since
9am
mm
Dir  Spd
km/h
Gust
km/h
Spd
kts
Gust
kts
27/11:30pm - - - - - W 19 24 10 13 - - -
27/11:00pm - - - - - WNW 15 22 8 12 - - -
27/10:30pm - - - - - W 22 30 12 16 - - -
27/10:00pm - - - - - W 20 28 11 15 - - -
27/09:30pm - - - - - WSW 13 20 7 11 - - -
27/09:00pm - - - - - WNW 11 15 6 8 - - -
27/08:30pm - - - - - W 13 19 7 10 - - -
27/08:00pm - - - - - W 17 22 9 12 - - -
27/07:30pm - - - - - W 24 32 13 17 - - -
27/07:00pm - - - - - W 22 30 12 16 - - -
27/06:30pm - - - - - W 22 30 12 16 - - -
27/06:00pm - - - - - W 20 28 11 15 - - -
27/05:30pm - - - - - WSW 26 37 14 20 - - -
27/05:00pm - - - - - WSW 28 43 15 23 - - -
27/04:34pm - - - - - WSW 28 46 15 25 - - -
27/04:30pm - - - - - WSW 33 50 18 27 - - -
27/04:21pm - - - - - W 32 50 17 27 - - -
27/04:00pm - - - - - WSW 32 43 17 23 - - -
27/03:37pm - - - - - WSW 28 46 15 25 - - -
27/03:30pm - - - - - WSW 32 46 17 25 - - -
27/03:18pm - - - - - WSW 30 48 16 26 - - -
27/03:00pm - - - - - W 28 43 15 23 - - -
27/02:30pm - - - - - WNW 33 43 18 23 - - -
27/02:00pm - - - - - W 33 43 18 23 - - -
27/01:30pm - - - - - W 35 46 19 25 - - -
27/01:00pm - - - - - W 37 63 20 34 - - -
27/12:32pm - - - - - W 37 57 20 31 - - -
27/12:30pm - - - - - W 37 50 20 27 - - -
27/12:01pm - - - - - W 32 54 17 29 - - -
27/12:00pm - - - - - WNW 30 43 16 23 - - -
27/11:34am - - - - - WNW 30 48 16 26 - - -
27/11:30am - - - - - WNW 33 50 18 27 - - -
27/11:00am - - - - - WNW 37 61 20 33 - - -
27/10:43am - - - - - WNW 24 54 13 29 - - -
27/10:41am - - - - - WNW 20 54 11 29 - - -
27/10:30am - - - - - WNW 17 26 9 14 - - -
27/10:00am - - - - - NW 19 32 10 17 - - -
27/09:30am - - - - - WNW 24 39 13 21 - - -
27/09:00am - - - - - NW 19 33 10 18 - - -
27/08:30am - - - - - NW 22 32 12 17 - - -
27/08:00am - - - - - NW 26 39 14 21 - - -
27/07:30am - - - - - NW 30 39 16 21 - - -
27/07:00am - - - - - NW 30 46 16 25 - - -
27/06:30am - - - - - NW 28 37 15 20 - - -
27/06:00am - - - - - NW 20 33 11 18 - - -
27/05:30am - - - - - NW 26 33 14 18 - - -
27/05:00am - - - - - NW 24 39 13 21 - - -
27/04:47am - - - - - NW 28 41 15 22 - - -
27/04:30am - - - - - NW 15 20 8 11 - - -
27/04:00am - - - - - NNW 19 26 10 14 - - -
27/03:30am - - - - - NNW 19 22 10 12 - - -
27/03:00am - - - - - NNW 19 22 10 12 - - -
27/02:30am - - - - - WNW 13 24 7 13 - - -
27/02:00am - - - - - NW 17 28 9 15 - - -
27/01:30am - - - - - NNW 17 20 9 11 - - -
27/01:00am - - - - - NNW 17 20 9 11 - - -
27/12:30am - - - - - NNW 15 19 8 10 - - -
27/12:00am - - - - - NNW 15 19 8 10 - - -
 
Date/Time
EST
Temp
°C
App
Temp
°C
Dew
Point
°C
Rel
Hum
%
Delta-T
°C
Wind Press
QNH
hPa
Press
MSL
hPa
Rain since
9am
mm
Dir  Spd
km/h
Gust
km/h
Spd
kts
Gust
kts
26/11:30pm - - - - - NNW 17 22 9 12 - - -
26/11:00pm - - - - - NNW 11 19 6 10 - - -
26/10:30pm - - - - - N 9 13 5 7 - - -
26/10:00pm - - - - - WNW 6 7 3 4 - - -
26/09:30pm - - - - - NW 11 15 6 8 - - -
26/09:00pm - - - - - WNW 15 24 8 13 - - -
26/08:30pm - - - - - W 24 39 13 21 - - -

Other Formats:

Comma delimited format used in spreadsheet applications
http://www.bom.gov.au/fwo/IDN60801/IDN60801.94769.axf

JavaScript Object Notation format (JSON) in row-major order
http://www.bom.gov.au/fwo/IDN60801/IDN60801.94769.json